sensor_id;sensor_type;location;lat;lon;timestamp;temperature;humidity
64869;DHT22;51349;52.424;10.840;2022-12-26T00:00:45;11.00;99.90
64869;DHT22;51349;52.424;10.840;2022-12-26T00:05:45;11.00;99.90
64869;DHT22;51349;52.424;10.840;2022-12-26T00:10:46;11.00;99.90
64869;DHT22;51349;52.424;10.840;2022-12-26T00:15:47;11.00;99.90
64869;DHT22;51349;52.424;10.840;2022-12-26T00:20:47;11.00;99.90
64869;DHT22;51349;52.424;10.840;2022-12-26T00:25:48;11.00;99.90
64869;DHT22;51349;52.424;10.840;2022-12-26T00:30:49;11.00;99.90
64869;DHT22;51349;52.424;10.840;2022-12-26T00:35:49;11.10;99.90
64869;DHT22;51349;52.424;10.840;2022-12-26T00:40:50;11.00;99.90
64869;DHT22;51349;52.424;10.840;2022-12-26T00:45:51;11.10;99.90
64869;DHT22;51349;52.424;10.840;2022-12-26T00:50:51;11.10;99.90
64869;DHT22;51349;52.424;10.840;2022-12-26T00:55:52;11.00;99.90
64869;DHT22;51349;52.424;10.840;2022-12-26T01:00:54;11.00;99.90
64869;DHT22;51349;52.424;10.840;2022-12-26T01:05:54;11.00;99.90
64869;DHT22;51349;52.424;10.840;2022-12-26T01:10:55;10.90;99.90
64869;DHT22;51349;52.424;10.840;2022-12-26T01:15:56;10.90;99.90
64869;DHT22;51349;52.424;10.840;2022-12-26T01:21:01;10.90;99.90
64869;DHT22;51349;52.424;10.840;2022-12-26T01:26:04;10.80;99.90
64869;DHT22;51349;52.424;10.840;2022-12-26T01:31:05;10.70;99.90
64869;DHT22;51349;52.424;10.840;2022-12-26T01:36:06;10.70;99.90
64869;DHT22;51349;52.424;10.840;2022-12-26T01:41:06;10.60;99.90
64869;DHT22;51349;52.424;10.840;2022-12-26T01:46:20;10.60;99.90
64869;DHT22;51349;52.424;10.840;2022-12-26T01:51:23;10.60;99.90
64869;DHT22;51349;52.424;10.840;2022-12-26T01:56:33;10.50;99.90
64869;DHT22;51349;52.424;10.840;2022-12-26T02:01:37;10.50;99.90
64869;DHT22;51349;52.424;10.840;2022-12-26T02:06:38;10.50;99.90
64869;DHT22;51349;52.424;10.840;2022-12-26T02:11:44;10.50;99.90
64869;DHT22;51349;52.424;10.840;2022-12-26T02:16:46;10.50;99.90
64869;DHT22;51349;52.424;10.840;2022-12-26T02:33:21;10.40;99.90
64869;DHT22;51349;52.424;10.840;2022-12-26T02:44:13;10.50;99.90
64869;DHT22;51349;52.424;10.840;2022-12-26T02:55:21;10.50;99.90
64869;DHT22;51349;52.424;10.840;2022-12-26T03:00:43;10.50;99.90
64869;DHT22;51349;52.424;10.840;2022-12-26T03:06:16;10.60;99.90
64869;DHT22;51349;52.424;10.840;2022-12-26T03:11:39;10.70;99.90
64869;DHT22;51349;52.424;10.840;2022-12-26T03:17:07;10.60;99.90
64869;DHT22;51349;52.424;10.840;2022-12-26T03:22:20;10.60;99.90
64869;DHT22;51349;52.424;10.840;2022-12-26T03:27:30;10.50;99.90
64869;DHT22;51349;52.424;10.840;2022-12-26T03:32:41;10.40;99.90
64869;DHT22;51349;52.424;10.840;2022-12-26T03:37:52;10.40;99.90
64869;DHT22;51349;52.424;10.840;2022-12-26T03:53:52;10.40;99.90
64869;DHT22;51349;52.424;10.840;2022-12-26T03:59:18;10.30;99.90
64869;DHT22;51349;52.424;10.840;2022-12-26T04:04:42;10.30;99.90
64869;DHT22;51349;52.424;10.840;2022-12-26T04:10:06;10.30;99.90
64869;DHT22;51349;52.424;10.840;2022-12-26T04:21:17;10.20;99.90
64869;DHT22;51349;52.424;10.840;2022-12-26T04:26:42;10.10;99.90
64869;DHT22;51349;52.424;10.840;2022-12-26T04:32:09;10.20;99.90
64869;DHT22;51349;52.424;10.840;2022-12-26T04:37:31;10.10;99.90
64869;DHT22;51349;52.424;10.840;2022-12-26T04:42:52;10.20;99.90
64869;DHT22;51349;52.424;10.840;2022-12-26T04:48:11;10.00;99.90
64869;DHT22;51349;52.424;10.840;2022-12-26T04:53:31;10.10;99.90
64869;DHT22;51349;52.424;10.840;2022-12-26T04:58:31;10.00;99.90
64869;DHT22;51349;52.424;10.840;2022-12-26T05:03:32;10.00;99.90
64869;DHT22;51349;52.424;10.840;2022-12-26T05:08:51;10.00;99.90
64869;DHT22;51349;52.424;10.840;2022-12-26T05:14:10;10.00;99.90
64869;DHT22;51349;52.424;10.840;2022-12-26T05:19:16;10.00;99.90
64869;DHT22;51349;52.424;10.840;2022-12-26T05:24:38;9.80;99.90
64869;DHT22;51349;52.424;10.840;2022-12-26T05:29:59;9.90;99.90
64869;DHT22;51349;52.424;10.840;2022-12-26T05:34:59;9.90;99.90
64869;DHT22;51349;52.424;10.840;2022-12-26T05:40:00;9.70;99.90
64869;DHT22;51349;52.424;10.840;2022-12-26T05:45:01;9.80;99.90
64869;DHT22;51349;52.424;10.840;2022-12-26T05:50:02;9.90;99.90
64869;DHT22;51349;52.424;10.840;2022-12-26T05:55:03;9.90;99.90
64869;DHT22;51349;52.424;10.840;2022-12-26T06:00:04;9.80;99.90
64869;DHT22;51349;52.424;10.840;2022-12-26T06:05:05;9.90;99.90
64869;DHT22;51349;52.424;10.840;2022-12-26T06:10:06;9.80;99.90
64869;DHT22;51349;52.424;10.840;2022-12-26T06:15:08;9.90;99.90
64869;DHT22;51349;52.424;10.840;2022-12-26T06:20:09;9.80;99.90
64869;DHT22;51349;52.424;10.840;2022-12-26T06:25:10;9.80;99.90
64869;DHT22;51349;52.424;10.840;2022-12-26T06:30:10;9.80;99.90
64869;DHT22;51349;52.424;10.840;2022-12-26T06:35:11;9.80;99.90
64869;DHT22;51349;52.424;10.840;2022-12-26T06:40:12;9.80;99.90
64869;DHT22;51349;52.424;10.840;2022-12-26T06:45:12;9.70;99.90
64869;DHT22;51349;52.424;10.840;2022-12-26T06:50:13;9.70;99.90
64869;DHT22;51349;52.424;10.840;2022-12-26T06:55:14;9.60;99.90
64869;DHT22;51349;52.424;10.840;2022-12-26T07:00:15;9.60;99.90
64869;DHT22;51349;52.424;10.840;2022-12-26T07:05:15;9.60;99.90
64869;DHT22;51349;52.424;10.840;2022-12-26T07:10:16;9.60;99.90
64869;DHT22;51349;52.424;10.840;2022-12-26T07:15:17;9.60;99.90
64869;DHT22;51349;52.424;10.840;2022-12-26T07:20:18;9.70;99.90
64869;DHT22;51349;52.424;10.840;2022-12-26T07:25:18;9.70;99.90
64869;DHT22;51349;52.424;10.840;2022-12-26T07:30:19;9.70;99.90
64869;DHT22;51349;52.424;10.840;2022-12-26T07:35:20;9.60;99.90
64869;DHT22;51349;52.424;10.840;2022-12-26T07:40:20;9.50;99.90
64869;DHT22;51349;52.424;10.840;2022-12-26T07:45:21;9.50;99.90
64869;DHT22;51349;52.424;10.840;2022-12-26T07:50:23;9.50;99.90
64869;DHT22;51349;52.424;10.840;2022-12-26T07:55:24;9.40;99.90
64869;DHT22;51349;52.424;10.840;2022-12-26T08:00:25;9.30;99.90
64869;DHT22;51349;52.424;10.840;2022-12-26T08:05:25;9.30;99.90
64869;DHT22;51349;52.424;10.840;2022-12-26T08:10:26;9.20;99.90
64869;DHT22;51349;52.424;10.840;2022-12-26T08:15:27;9.20;99.90
64869;DHT22;51349;52.424;10.840;2022-12-26T08:20:27;9.20;99.90
64869;DHT22;51349;52.424;10.840;2022-12-26T08:25:28;9.30;99.90
64869;DHT22;51349;52.424;10.840;2022-12-26T08:30:29;9.30;99.90
64869;DHT22;51349;52.424;10.840;2022-12-26T08:35:30;9.30;99.90
64869;DHT22;51349;52.424;10.840;2022-12-26T08:40:32;9.30;99.90
64869;DHT22;51349;52.424;10.840;2022-12-26T08:45:36;9.20;99.90
64869;DHT22;51349;52.424;10.840;2022-12-26T08:50:37;9.20;99.90
64869;DHT22;51349;52.424;10.840;2022-12-26T08:55:38;9.20;99.90
64869;DHT22;51349;52.424;10.840;2022-12-26T09:00:38;9.20;99.90
64869;DHT22;51349;52.424;10.840;2022-12-26T09:05:39;9.30;99.90
64869;DHT22;51349;52.424;10.840;2022-12-26T09:10:40;9.30;99.90
64869;DHT22;51349;52.424;10.840;2022-12-26T09:15:40;9.30;99.90
64869;DHT22;51349;52.424;10.840;2022-12-26T09:20:41;9.30;99.90
64869;DHT22;51349;52.424;10.840;2022-12-26T09:25:42;9.30;99.90
64869;DHT22;51349;52.424;10.840;2022-12-26T09:30:42;9.30;99.90
64869;DHT22;51349;52.424;10.840;2022-12-26T09:35:44;9.40;99.90
64869;DHT22;51349;52.424;10.840;2022-12-26T09:46:33;9.40;99.90
64869;DHT22;51349;52.424;10.840;2022-12-26T09:51:35;9.60;99.90
64869;DHT22;51349;52.424;10.840;2022-12-26T09:56:38;9.60;99.90
64869;DHT22;51349;52.424;10.840;2022-12-26T10:01:39;9.60;99.90
64869;DHT22;51349;52.424;10.840;2022-12-26T10:06:47;9.80;99.90
64869;DHT22;51349;52.424;10.840;2022-12-26T10:12:14;9.70;99.90
64869;DHT22;51349;52.424;10.840;2022-12-26T10:18:24;9.80;99.90
64869;DHT22;51349;52.424;10.840;2022-12-26T10:33:52;9.90;99.90
64869;DHT22;51349;52.424;10.840;2022-12-26T10:38:55;10.00;99.90
64869;DHT22;51349;52.424;10.840;2022-12-26T10:43:57;10.00;99.90
64869;DHT22;51349;52.424;10.840;2022-12-26T10:48:58;10.00;99.90
64869;DHT22;51349;52.424;10.840;2022-12-26T10:53:59;10.00;99.90
64869;DHT22;51349;52.424;10.840;2022-12-26T10:59:02;10.00;99.90
64869;DHT22;51349;52.424;10.840;2022-12-26T11:04:21;10.00;99.90
64869;DHT22;51349;52.424;10.840;2022-12-26T11:09:43;10.10;99.90
64869;DHT22;51349;52.424;10.840;2022-12-26T11:14:45;10.10;99.90
64869;DHT22;51349;52.424;10.840;2022-12-26T11:19:46;10.00;99.90
64869;DHT22;51349;52.424;10.840;2022-12-26T11:30:28;10.20;99.90
64869;DHT22;51349;52.424;10.840;2022-12-26T11:35:30;10.20;99.90
64869;DHT22;51349;52.424;10.840;2022-12-26T11:40:38;10.30;99.90
64869;DHT22;51349;52.424;10.840;2022-12-26T11:45:59;11.40;99.90
64869;DHT22;51349;52.424;10.840;2022-12-26T11:50:59;13.40;99.90
64869;DHT22;51349;52.424;10.840;2022-12-26T11:56:04;14.40;99.90
64869;DHT22;51349;52.424;10.840;2022-12-26T12:01:11;14.50;99.90
64869;DHT22;51349;52.424;10.840;2022-12-26T12:27:38;11.60;99.90
64869;DHT22;51349;52.424;10.840;2022-12-26T12:48:37;11.00;99.90
64869;DHT22;51349;52.424;10.840;2022-12-26T13:04:23;11.00;99.90
64869;DHT22;51349;52.424;10.840;2022-12-26T13:09:46;10.90;99.90
64869;DHT22;51349;52.424;10.840;2022-12-26T13:14:51;10.80;99.90
64869;DHT22;51349;52.424;10.840;2022-12-26T13:19:59;10.50;99.90
64869;DHT22;51349;52.424;10.840;2022-12-26T13:25:04;10.40;99.90
64869;DHT22;51349;52.424;10.840;2022-12-26T13:30:12;10.40;99.90
64869;DHT22;51349;52.424;10.840;2022-12-26T13:40:55;10.60;99.90
64869;DHT22;51349;52.424;10.840;2022-12-26T13:51:50;10.80;99.90
64869;DHT22;51349;52.424;10.840;2022-12-26T13:57:05;10.80;99.90
64869;DHT22;51349;52.424;10.840;2022-12-26T14:18:22;10.70;99.90
64869;DHT22;51349;52.424;10.840;2022-12-26T14:23:54;10.60;99.90
64869;DHT22;51349;52.424;10.840;2022-12-26T14:29:10;10.60;99.90
64869;DHT22;51349;52.424;10.840;2022-12-26T14:34:40;10.50;99.90
64869;DHT22;51349;52.424;10.840;2022-12-26T14:40:26;10.70;99.90
64869;DHT22;51349;52.424;10.840;2022-12-26T14:50:35;9.80;99.90
64869;DHT22;51349;52.424;10.840;2022-12-26T15:00:48;8.30;99.90
64869;DHT22;51349;52.424;10.840;2022-12-26T15:05:54;8.50;99.90
64869;DHT22;51349;52.424;10.840;2022-12-26T15:22:14;8.50;99.90
64869;DHT22;51349;52.424;10.840;2022-12-26T15:33:08;8.60;99.90
64869;DHT22;51349;52.424;10.840;2022-12-26T15:38:28;8.50;99.90
64869;DHT22;51349;52.424;10.840;2022-12-26T16:15:24;7.40;99.90
64869;DHT22;51349;52.424;10.840;2022-12-26T16:20:29;7.20;99.90
64869;DHT22;51349;52.424;10.840;2022-12-26T16:25:51;7.10;99.90
64869;DHT22;51349;52.424;10.840;2022-12-26T16:30:54;6.90;99.90
64869;DHT22;51349;52.424;10.840;2022-12-26T16:35:55;6.80;99.90
64869;DHT22;51349;52.424;10.840;2022-12-26T16:40:56;6.70;99.90
64869;DHT22;51349;52.424;10.840;2022-12-26T16:46:02;6.70;99.90
64869;DHT22;51349;52.424;10.840;2022-12-26T16:51:06;6.60;99.90
64869;DHT22;51349;52.424;10.840;2022-12-26T16:56:26;6.50;99.90
64869;DHT22;51349;52.424;10.840;2022-12-26T17:01:28;6.40;99.90
64869;DHT22;51349;52.424;10.840;2022-12-26T17:06:47;6.40;99.90
64869;DHT22;51349;52.424;10.840;2022-12-26T17:17:04;6.20;99.90
64869;DHT22;51349;52.424;10.840;2022-12-26T17:32:27;6.20;99.90
64869;DHT22;51349;52.424;10.840;2022-12-26T17:37:30;6.10;99.90
64869;DHT22;51349;52.424;10.840;2022-12-26T17:42:43;6.00;99.90
64869;DHT22;51349;52.424;10.840;2022-12-26T17:47:44;5.90;99.90
64869;DHT22;51349;52.424;10.840;2022-12-26T17:52:45;5.90;99.90
64869;DHT22;51349;52.424;10.840;2022-12-26T17:57:46;5.70;99.90
64869;DHT22;51349;52.424;10.840;2022-12-26T18:02:47;5.70;99.90
64869;DHT22;51349;52.424;10.840;2022-12-26T18:07:49;5.70;99.90
64869;DHT22;51349;52.424;10.840;2022-12-26T18:12:51;5.60;99.90
64869;DHT22;51349;52.424;10.840;2022-12-26T18:17:52;5.60;99.90
64869;DHT22;51349;52.424;10.840;2022-12-26T18:22:54;5.60;99.90
64869;DHT22;51349;52.424;10.840;2022-12-26T18:27:54;5.60;99.90
64869;DHT22;51349;52.424;10.840;2022-12-26T18:32:55;5.60;99.90
64869;DHT22;51349;52.424;10.840;2022-12-26T18:37:56;5.50;99.90
64869;DHT22;51349;52.424;10.840;2022-12-26T18:42:56;5.50;99.90
64869;DHT22;51349;52.424;10.840;2022-12-26T18:47:57;5.50;99.90
64869;DHT22;51349;52.424;10.840;2022-12-26T18:52:58;5.50;99.90
64869;DHT22;51349;52.424;10.840;2022-12-26T18:57:59;5.40;99.90
64869;DHT22;51349;52.424;10.840;2022-12-26T19:02:59;5.40;99.90
64869;DHT22;51349;52.424;10.840;2022-12-26T19:08:01;5.40;99.90
64869;DHT22;51349;52.424;10.840;2022-12-26T19:13:02;5.20;99.90
64869;DHT22;51349;52.424;10.840;2022-12-26T19:18:06;5.10;99.90
64869;DHT22;51349;52.424;10.840;2022-12-26T19:23:06;5.10;99.90
64869;DHT22;51349;52.424;10.840;2022-12-26T19:28:07;5.10;99.90
64869;DHT22;51349;52.424;10.840;2022-12-26T19:33:08;5.00;99.90
64869;DHT22;51349;52.424;10.840;2022-12-26T19:38:08;5.00;99.90
64869;DHT22;51349;52.424;10.840;2022-12-26T19:43:09;4.90;99.90
64869;DHT22;51349;52.424;10.840;2022-12-26T19:48:09;4.90;99.90
64869;DHT22;51349;52.424;10.840;2022-12-26T19:53:10;4.80;99.90
64869;DHT22;51349;52.424;10.840;2022-12-26T19:58:11;4.70;99.90
64869;DHT22;51349;52.424;10.840;2022-12-26T20:03:11;4.50;99.90
64869;DHT22;51349;52.424;10.840;2022-12-26T20:08:12;4.30;99.90
64869;DHT22;51349;52.424;10.840;2022-12-26T20:13:13;4.10;99.90
64869;DHT22;51349;52.424;10.840;2022-12-26T20:18:13;4.20;99.90
64869;DHT22;51349;52.424;10.840;2022-12-26T20:23:14;4.10;99.90
64869;DHT22;51349;52.424;10.840;2022-12-26T20:28:14;4.00;99.90
64869;DHT22;51349;52.424;10.840;2022-12-26T20:33:16;3.90;99.90
64869;DHT22;51349;52.424;10.840;2022-12-26T20:38:17;3.70;99.90
64869;DHT22;51349;52.424;10.840;2022-12-26T20:43:19;3.50;99.90
64869;DHT22;51349;52.424;10.840;2022-12-26T20:48:20;3.70;99.90
64869;DHT22;51349;52.424;10.840;2022-12-26T20:53:21;3.70;99.90
64869;DHT22;51349;52.424;10.840;2022-12-26T20:58:22;3.50;99.90
64869;DHT22;51349;52.424;10.840;2022-12-26T21:03:23;3.60;99.90
64869;DHT22;51349;52.424;10.840;2022-12-26T21:08:24;3.50;99.90
64869;DHT22;51349;52.424;10.840;2022-12-26T21:13:25;3.50;99.90
64869;DHT22;51349;52.424;10.840;2022-12-26T21:18:25;3.50;99.90
64869;DHT22;51349;52.424;10.840;2022-12-26T21:23:26;3.50;99.90
64869;DHT22;51349;52.424;10.840;2022-12-26T21:28:26;3.40;99.90
64869;DHT22;51349;52.424;10.840;2022-12-26T21:33:28;3.40;99.90
64869;DHT22;51349;52.424;10.840;2022-12-26T21:38:29;3.30;99.90
64869;DHT22;51349;52.424;10.840;2022-12-26T21:43:30;3.20;99.90
64869;DHT22;51349;52.424;10.840;2022-12-26T21:48:32;3.10;99.90
64869;DHT22;51349;52.424;10.840;2022-12-26T21:53:33;3.20;99.90
64869;DHT22;51349;52.424;10.840;2022-12-26T21:58:34;3.20;99.90
64869;DHT22;51349;52.424;10.840;2022-12-26T22:03:54;3.30;99.90
64869;DHT22;51349;52.424;10.840;2022-12-26T22:09:13;3.20;99.90
64869;DHT22;51349;52.424;10.840;2022-12-26T22:14:17;3.30;99.90
64869;DHT22;51349;52.424;10.840;2022-12-26T22:19:18;3.20;99.90
64869;DHT22;51349;52.424;10.840;2022-12-26T22:24:18;3.30;99.90
64869;DHT22;51349;52.424;10.840;2022-12-26T22:29:21;3.30;99.90
64869;DHT22;51349;52.424;10.840;2022-12-26T22:34:21;3.20;99.90
64869;DHT22;51349;52.424;10.840;2022-12-26T22:39:22;3.20;99.90
64869;DHT22;51349;52.424;10.840;2022-12-26T22:44:22;3.10;99.90
64869;DHT22;51349;52.424;10.840;2022-12-26T22:49:23;3.00;99.90
64869;DHT22;51349;52.424;10.840;2022-12-26T22:54:24;3.00;99.90
64869;DHT22;51349;52.424;10.840;2022-12-26T22:59:25;3.00;99.90
64869;DHT22;51349;52.424;10.840;2022-12-26T23:04:26;2.90;99.90
64869;DHT22;51349;52.424;10.840;2022-12-26T23:09:30;2.90;99.90
64869;DHT22;51349;52.424;10.840;2022-12-26T23:14:31;3.00;99.90
64869;DHT22;51349;52.424;10.840;2022-12-26T23:19:34;2.90;99.90
64869;DHT22;51349;52.424;10.840;2022-12-26T23:24:55;3.00;99.90
64869;DHT22;51349;52.424;10.840;2022-12-26T23:29:55;3.10;99.90
64869;DHT22;51349;52.424;10.840;2022-12-26T23:35:15;3.10;99.90
64869;DHT22;51349;52.424;10.840;2022-12-26T23:40:18;3.20;99.90
64869;DHT22;51349;52.424;10.840;2022-12-26T23:45:18;3.20;99.90
64869;DHT22;51349;52.424;10.840;2022-12-26T23:50:19;3.40;99.90
64869;DHT22;51349;52.424;10.840;2022-12-26T23:55:20;3.40;99.90
